Time;durP1;ratioP1;P1;durP2;ratioP2;P2;SDS_P1;SDS_P2;PMS_P1;PMS_P2;Temp;Humidity;BMP_temperature;BMP_pressure;BME280_temperature;BME280_humidity;BME280_pressure;Samples;Min_cycle;Max_cycle;Signal;HPM_P1;HPM_P2
2022/05/07 00:00:53;;;;;;;;;;;;;;;13.52;100.00;102255.72;5072137;28;20364;-75
2022/05/07 00:03:20;;;;;;;;;;;;;;;13.53;100.00;102253.13;5074523;28;19966;-75
2022/05/07 00:05:45;;;;;;;;;;;;;;;13.54;100.00;102254.03;5074026;28;19927;-76
2022/05/07 00:08:10;;;;;;;;;;;;;;;13.54;100.00;102262.84;5056641;28;19921;-75
2022/05/07 00:10:36;;;;;;;;;;;;;;;13.56;100.00;102257.63;5070638;28;20005;-76
2022/05/07 00:13:04;;;;;;;;;;;;;;;13.55;100.00;102255.81;5094288;28;20607;-75
2022/05/07 00:15:30;;;;;;;;;;;;;;;13.57;100.00;102255.06;5062874;28;20033;-73
2022/05/07 00:18:01;;;;;;;;;;;;;;;13.60;100.00;102254.31;5055930;28;20011;-74
2022/05/07 00:20:27;;;;;;;;;;;;;;;13.55;100.00;102248.81;5072880;28;19959;-72
2022/05/07 00:22:53;;;;;;;;;;;;;;;13.63;100.00;102254.44;5064487;28;19921;-76
2022/05/07 00:25:18;;;;;;;;;;;;;;;13.64;100.00;102254.53;5068397;28;19923;-76
2022/05/07 00:27:43;;;;;;;;;;;;;;;13.61;100.00;102241.16;5039371;28;19946;-78
2022/05/07 00:30:09;;;;;;;;;;;;;;;13.56;100.00;102242.66;5064690;28;19927;-76
2022/05/07 00:32:34;;;;;;;;;;;;;;;13.55;100.00;102237.28;5083461;28;20427;-74
2022/05/07 00:34:59;;;;;;;;;;;;;;;13.56;100.00;102229.41;5058472;28;19920;-73
2022/05/07 00:37:25;;;;;;;;;;;;;;;13.49;100.00;102226.44;5056985;28;20348;-76
2022/05/07 00:39:50;;;;;;;;;;;;;;;13.54;100.00;102223.16;5070152;28;19920;-76
2022/05/07 00:42:16;;;;;;;;;;;;;;;13.59;100.00;102216.31;5092349;28;19916;-74
2022/05/07 00:44:42;;;;;;;;;;;;;;;13.60;100.00;102211.97;5087680;28;19946;-74
2022/05/07 00:47:13;;;;;;;;;;;;;;;13.62;100.00;102216.47;5087789;28;19917;-75
2022/05/07 00:49:39;;;;;;;;;;;;;;;13.62;100.00;102208.53;5073506;28;19947;-75
2022/05/07 00:52:05;;;;;;;;;;;;;;;13.58;100.00;102211.88;5087157;28;19993;-75
2022/05/07 00:54:31;;;;;;;;;;;;;;;13.54;100.00;102209.94;5092202;28;19916;-74
2022/05/07 00:56:56;;;;;;;;;;;;;;;13.47;100.00;102213.16;5071313;28;20062;-73
2022/05/07 00:59:21;;;;;;;;;;;;;;;13.40;100.00;102226.91;5071471;28;19916;-75
2022/05/07 01:01:47;;;;;;;;;;;;;;;13.39;100.00;102225.09;5081738;28;19923;-74
2022/05/07 01:04:13;;;;;;;;;;;;;;;13.37;100.00;102222.38;5071197;28;20450;-74
2022/05/07 01:06:39;;;;;;;;;;;;;;;13.38;100.00;102223.31;5076772;28;19924;-75
2022/05/07 01:09:04;;;;;;;;;;;;;;;13.36;100.00;102227.59;5078668;28;19924;-73
2022/05/07 01:11:31;;;;;;;;;;;;;;;13.25;100.00;102229.72;5072613;28;19917;-75
2022/05/07 01:13:56;;;;;;;;;;;;;;;13.32;100.00;102225.63;5079680;28;19916;-74
2022/05/07 01:16:22;;;;;;;;;;;;;;;13.19;100.00;102225.06;5089981;28;19928;-74
2022/05/07 01:18:48;;;;;;;;;;;;;;;13.20;100.00;102224.19;5070819;28;19916;-75
2022/05/07 01:21:15;;;;;;;;;;;;;;;13.20;100.00;102224.19;5079957;28;19938;-74
2022/05/07 01:23:41;;;;;;;;;;;;;;;13.18;100.00;102225.88;5092024;28;19922;-74
2022/05/07 01:26:07;;;;;;;;;;;;;;;13.18;100.00;102217.94;5084258;28;20380;-75
2022/05/07 01:28:32;;;;;;;;;;;;;;;13.15;100.00;102219.56;5073781;28;19931;-74
2022/05/07 01:30:57;;;;;;;;;;;;;;;13.07;100.00;102214.78;5056124;28;19931;-76
2022/05/07 01:33:23;;;;;;;;;;;;;;;13.12;100.00;102215.00;5065245;28;19932;-73
2022/05/07 01:35:48;;;;;;;;;;;;;;;13.08;100.00;102215.69;5076396;28;19920;-75
2022/05/07 01:38:13;;;;;;;;;;;;;;;13.05;100.00;102213.81;5063033;28;19927;-75
2022/05/07 01:40:39;;;;;;;;;;;;;;;12.99;100.00;102215.25;5090455;28;19982;-75
2022/05/07 01:43:05;;;;;;;;;;;;;;;12.97;100.00;102212.53;5076199;28;19924;-75
2022/05/07 01:45:30;;;;;;;;;;;;;;;12.85;100.00;102202.28;5053929;28;19917;-75
2022/05/07 01:48:11;;;;;;;;;;;;;;;12.77;100.00;102202.75;5090836;28;20085;-75
2022/05/07 01:50:40;;;;;;;;;;;;;;;12.74;100.00;102192.94;5072037;28;20308;-74
2022/05/07 01:53:10;;;;;;;;;;;;;;;12.77;100.00;102189.53;5071426;28;20395;-75
2022/05/07 01:55:36;;;;;;;;;;;;;;;12.78;100.00;102180.78;5065586;28;19916;-74
2022/05/07 01:58:02;;;;;;;;;;;;;;;12.74;100.00;102182.38;5053787;28;20368;-75
2022/05/07 02:00:29;;;;;;;;;;;;;;;12.75;100.00;102177.16;5055898;28;19921;-76
2022/05/07 02:02:55;;;;;;;;;;;;;;;12.73;100.00;102172.63;5079863;28;19921;-76
2022/05/07 02:05:22;;;;;;;;;;;;;;;12.67;100.00;102167.94;5054582;28;19916;-75
2022/05/07 02:07:47;;;;;;;;;;;;;;;12.67;100.00;102162.66;5087686;28;19924;-75
2022/05/07 02:10:12;;;;;;;;;;;;;;;12.67;100.00;102165.28;5089848;28;20265;-76
2022/05/07 02:12:38;;;;;;;;;;;;;;;12.72;100.00;102157.59;5085699;28;20015;-75
2022/05/07 02:15:03;;;;;;;;;;;;;;;12.68;100.00;102160.94;5070275;28;19920;-74
2022/05/07 02:17:28;;;;;;;;;;;;;;;12.67;100.00;102160.00;5061236;28;20004;-78
2022/05/07 02:19:54;;;;;;;;;;;;;;;12.60;100.00;102152.63;5090762;28;19927;-77
2022/05/07 02:22:21;;;;;;;;;;;;;;;12.65;100.00;102147.56;5091044;28;19920;-77
2022/05/07 02:24:52;;;;;;;;;;;;;;;12.63;100.00;102141.28;5071081;28;19927;-77
2022/05/07 02:27:17;;;;;;;;;;;;;;;12.59;100.00;102136.69;5054388;28;19921;-77
2022/05/07 02:29:42;;;;;;;;;;;;;;;12.55;100.00;102127.69;5083829;28;19920;-77
2022/05/07 02:32:09;;;;;;;;;;;;;;;12.53;100.00;102124.97;5092117;28;20018;-78
2022/05/07 02:34:37;;;;;;;;;;;;;;;12.48;100.00;102121.22;5090320;28;20662;-76
2022/05/07 02:37:03;;;;;;;;;;;;;;;12.43;100.00;102120.09;5077081;28;19950;-73
2022/05/07 02:39:28;;;;;;;;;;;;;;;12.43;100.00;102122.75;5054191;28;19943;-78
2022/05/07 02:44:37;;;;;;;;;;;;;;;12.41;100.00;102099.72;5082383;28;19924;-75
2022/05/07 02:47:04;;;;;;;;;;;;;;;12.39;100.00;102089.97;5053856;28;19924;-74
2022/05/07 02:49:29;;;;;;;;;;;;;;;12.44;100.00;102071.69;5054029;28;19912;-76
2022/05/07 02:51:54;;;;;;;;;;;;;;;12.47;100.00;102069.22;5090090;28;19922;-74
2022/05/07 02:54:21;;;;;;;;;;;;;;;12.46;100.00;102062.13;5090447;28;19912;-74
2022/05/07 02:56:46;;;;;;;;;;;;;;;12.48;100.00;102056.94;5078293;28;19921;-75
2022/05/07 02:59:11;;;;;;;;;;;;;;;12.45;100.00;102062.06;5053162;28;19931;-73
2022/05/07 03:01:36;;;;;;;;;;;;;;;12.44;100.00;102055.84;5053820;28;19960;-75
2022/05/07 03:04:02;;;;;;;;;;;;;;;12.40;100.00;102056.56;5060996;28;20276;-74
2022/05/07 03:06:27;;;;;;;;;;;;;;;12.40;100.00;102053.91;5063670;28;19920;-74
2022/05/07 03:08:52;;;;;;;;;;;;;;;12.39;100.00;102060.03;5093649;28;19975;-76
2022/05/07 03:11:18;;;;;;;;;;;;;;;12.34;100.00;102050.97;5087198;28;19920;-75
2022/05/07 03:13:44;;;;;;;;;;;;;;;12.29;100.00;102041.91;5063835;28;20372;-75
2022/05/07 03:16:09;;;;;;;;;;;;;;;12.27;100.00;102028.63;5085626;28;19921;-75
2022/05/07 03:18:38;;;;;;;;;;;;;;;12.33;100.00;102028.03;5057429;28;19926;-75
2022/05/07 03:21:03;;;;;;;;;;;;;;;12.28;100.00;102021.63;5057012;28;19927;-75
2022/05/07 03:23:28;;;;;;;;;;;;;;;12.27;100.00;102017.19;5063017;28;19920;-74
2022/05/07 03:25:55;;;;;;;;;;;;;;;12.28;100.00;102005.78;5094860;28;20319;-74
2022/05/07 03:28:20;;;;;;;;;;;;;;;12.26;100.00;102003.06;5095020;28;19923;-76
2022/05/07 03:30:45;;;;;;;;;;;;;;;12.23;100.00;101999.38;5091995;28;19917;-75
2022/05/07 03:33:14;;;;;;;;;;;;;;;12.27;100.00;101983.72;5058584;28;20383;-75
2022/05/07 03:35:39;;;;;;;;;;;;;;;12.24;100.00;101974.78;5064091;28;19929;-74
2022/05/07 03:38:04;;;;;;;;;;;;;;;12.20;100.00;101966.72;5069645;28;19928;-75
2022/05/07 03:40:32;;;;;;;;;;;;;;;12.17;100.00;101953.34;5089493;28;19928;-77
2022/05/07 03:42:57;;;;;;;;;;;;;;;12.13;100.00;101927.63;5089593;28;19923;-74
2022/05/07 03:45:23;;;;;;;;;;;;;;;12.17;100.00;101905.84;5074891;28;19913;-76
2022/05/07 03:47:49;;;;;;;;;;;;;;;12.13;100.00;101879.22;5080582;28;19920;-76
2022/05/07 03:50:15;;;;;;;;;;;;;;;12.12;100.00;101873.03;5074513;28;19920;-76
2022/05/07 03:55:24;;;;;;;;;;;;;;;12.04;100.00;101829.53;5055042;28;19955;-75
2022/05/07 03:57:49;;;;;;;;;;;;;;;12.05;100.00;101823.41;5089625;28;19955;-75
2022/05/07 04:00:14;;;;;;;;;;;;;;;12.11;100.00;101804.31;5080426;28;19925;-75
2022/05/07 04:02:40;;;;;;;;;;;;;;;12.15;100.00;101786.06;5054755;28;20034;-75
2022/05/07 04:05:05;;;;;;;;;;;;;;;12.08;100.00;101773.41;5056281;28;20272;-75
2022/05/07 04:07:31;;;;;;;;;;;;;;;12.02;100.00;101754.66;5070033;28;20270;-74
2022/05/07 04:09:56;;;;;;;;;;;;;;;12.02;100.00;101744.09;5069728;28;19916;-75
2022/05/07 04:12:22;;;;;;;;;;;;;;;12.07;100.00;101733.72;5069983;28;19921;-75
2022/05/07 04:14:47;;;;;;;;;;;;;;;12.08;100.00;101723.25;5070980;28;19963;-75
2022/05/07 04:17:13;;;;;;;;;;;;;;;12.12;100.00;101709.34;5075485;28;19956;-77
2022/05/07 04:19:38;;;;;;;;;;;;;;;12.15;100.00;101696.28;5073070;28;19921;-76
2022/05/07 04:22:03;;;;;;;;;;;;;;;12.19;100.00;101678.81;5069721;28;20399;-76
2022/05/07 04:24:33;;;;;;;;;;;;;;;12.18;100.00;101677.94;5070297;28;19924;-79
2022/05/07 04:26:58;;;;;;;;;;;;;;;12.19;100.00;101666.50;5077403;28;19928;-78
2022/05/07 04:29:24;;;;;;;;;;;;;;;12.24;100.00;101665.81;5079461;28;19917;-76
2022/05/07 04:31:49;;;;;;;;;;;;;;;12.27;100.00;101661.56;5075925;28;19921;-76
2022/05/07 04:34:14;;;;;;;;;;;;;;;12.34;100.00;101662.72;5092887;28;20191;-75
2022/05/07 04:36:40;;;;;;;;;;;;;;;12.33;100.00;101668.84;5089669;28;19920;-76
2022/05/07 04:39:05;;;;;;;;;;;;;;;12.35;100.00;101665.44;5079419;28;19921;-74
2022/05/07 04:41:30;;;;;;;;;;;;;;;12.36;100.00;101653.13;5072097;28;19928;-79
2022/05/07 04:43:57;;;;;;;;;;;;;;;12.44;100.00;101656.09;5075328;28;19991;-76
2022/05/07 04:46:23;;;;;;;;;;;;;;;12.47;100.00;101654.47;5092313;28;19920;-77
2022/05/07 04:48:48;;;;;;;;;;;;;;;12.50;100.00;101654.59;5093323;28;19950;-74
2022/05/07 04:51:13;;;;;;;;;;;;;;;12.58;100.00;101657.53;5081444;28;19921;-78
2022/05/07 04:53:40;;;;;;;;;;;;;;;12.55;100.00;101662.69;5068387;28;19917;-75
2022/05/07 04:56:06;;;;;;;;;;;;;;;12.62;100.00;101663.88;5069244;28;19917;-74
2022/05/07 04:58:31;;;;;;;;;;;;;;;12.63;100.00;101670.94;5052129;28;19920;-75
2022/05/07 05:00:56;;;;;;;;;;;;;;;12.69;100.00;101674.75;5058435;28;19921;-75
2022/05/07 05:03:21;;;;;;;;;;;;;;;12.76;100.00;101681.19;5052785;28;20019;-75
2022/05/07 05:05:48;;;;;;;;;;;;;;;12.80;100.00;101691.00;5068358;28;19923;-75
2022/05/07 05:08:13;;;;;;;;;;;;;;;12.79;100.00;101707.72;5073344;28;19936;-74
2022/05/07 05:10:38;;;;;;;;;;;;;;;12.82;100.00;101722.78;5073284;28;20284;-74
2022/05/07 05:13:05;;;;;;;;;;;;;;;12.86;100.00;101733.56;5084601;28;19925;-76
2022/05/07 05:15:31;;;;;;;;;;;;;;;12.82;100.00;101736.94;5067649;28;19967;-76
2022/05/07 05:17:56;;;;;;;;;;;;;;;12.77;100.00;101743.78;5067965;28;19912;-75
2022/05/07 05:20:22;;;;;;;;;;;;;;;12.80;100.00;101754.44;5068116;28;19921;-76
2022/05/07 05:22:48;;;;;;;;;;;;;;;12.87;100.00;101756.50;5068765;28;19917;-77
2022/05/07 05:25:14;;;;;;;;;;;;;;;12.88;100.00;101760.97;5087857;28;19928;-75
2022/05/07 05:27:39;;;;;;;;;;;;;;;12.93;100.00;101764.69;5088334;28;19916;-75
2022/05/07 05:30:05;;;;;;;;;;;;;;;12.99;100.00;101766.69;5086734;28;19999;-75
2022/05/07 05:32:30;;;;;;;;;;;;;;;13.03;100.00;101767.72;5087266;28;20396;-75
2022/05/07 05:34:55;;;;;;;;;;;;;;;13.08;100.00;101769.72;5082957;28;19972;-74
2022/05/07 05:37:21;;;;;;;;;;;;;;;13.19;100.00;101780.72;5067886;28;19917;-75
2022/05/07 05:39:46;;;;;;;;;;;;;;;13.28;100.00;101794.31;5051945;28;20017;-75
2022/05/07 05:42:12;;;;;;;;;;;;;;;13.27;100.00;101800.44;5069433;28;19921;-75
2022/05/07 05:44:41;;;;;;;;;;;;;;;13.35;100.00;101813.13;5070346;28;20291;-75
2022/05/07 05:47:07;;;;;;;;;;;;;;;13.35;100.00;101814.00;5087000;28;20239;-75
2022/05/07 05:49:33;;;;;;;;;;;;;;;13.28;100.00;101835.72;5087535;28;19917;-74
2022/05/07 05:52:00;;;;;;;;;;;;;;;13.44;100.00;101840.84;5075739;28;20387;-75
2022/05/07 05:54:27;;;;;;;;;;;;;;;13.56;100.00;101850.97;5067518;28;19964;-76
2022/05/07 05:56:52;;;;;;;;;;;;;;;13.71;100.00;101865.69;5067193;28;19921;-75
2022/05/07 05:59:17;;;;;;;;;;;;;;;13.65;100.00;101876.91;5067721;28;19962;-76
2022/05/07 06:01:43;;;;;;;;;;;;;;;13.65;100.00;101883.09;5067648;28;19921;-76
2022/05/07 06:04:10;;;;;;;;;;;;;;;14.02;100.00;101902.19;5068147;28;20487;-76
2022/05/07 06:06:35;;;;;;;;;;;;;;;14.34;100.00;101932.56;5082256;28;20027;-76
2022/05/07 06:09:01;;;;;;;;;;;;;;;14.69;100.00;101962.16;5082914;28;19960;-76
2022/05/07 06:11:26;;;;;;;;;;;;;;;15.14;100.00;102011.50;5053530;28;19936;-76
2022/05/07 06:13:52;;;;;;;;;;;;;;;15.65;100.00;102049.56;5056611;28;19921;-74
2022/05/07 06:16:18;;;;;;;;;;;;;;;16.11;100.00;102077.66;5066898;28;19920;-76
2022/05/07 06:18:43;;;;;;;;;;;;;;;15.91;100.00;102109.78;5082919;28;19916;-74
2022/05/07 06:21:08;;;;;;;;;;;;;;;16.59;100.00;102132.38;5068451;28;19963;-77
2022/05/07 06:23:34;;;;;;;;;;;;;;;16.90;100.00;102162.63;5053704;28;20007;-78
2022/05/07 06:28:43;;;;;;;;;;;;;;;17.27;100.00;102183.25;5060796;28;19942;-76
2022/05/07 06:31:11;;;;;;;;;;;;;;;17.32;100.00;102196.69;5087434;28;20408;-76
2022/05/07 06:33:39;;;;;;;;;;;;;;;17.00;100.00;102192.22;5076424;28;20032;-76
2022/05/07 06:36:09;;;;;;;;;;;;;;;17.72;100.00;102209.41;5087148;28;20145;-76
2022/05/07 06:38:35;;;;;;;;;;;;;;;18.86;100.00;102215.94;5089671;28;19920;-73
2022/05/07 06:41:02;;;;;;;;;;;;;;;19.13;100.00;102237.03;5063463;28;19925;-72
2022/05/07 06:43:31;;;;;;;;;;;;;;;18.68;100.00;102238.63;5083591;28;19920;-77
2022/05/07 06:45:57;;;;;;;;;;;;;;;18.66;100.00;102237.69;5089983;28;20620;-74
2022/05/07 06:48:23;;;;;;;;;;;;;;;18.33;100.00;102235.06;5083273;28;19917;-76
2022/05/07 06:50:49;;;;;;;;;;;;;;;18.40;100.00;102239.69;5085768;28;20291;-74
2022/05/07 06:53:15;;;;;;;;;;;;;;;17.72;100.00;102224.50;5090918;28;19917;-77
2022/05/07 06:55:56;;;;;;;;;;;;;;;17.41;100.00;102212.94;5087266;28;19920;-74
2022/05/07 06:58:33;;;;;;;;;;;;;;;17.37;100.00;102211.03;5090261;28;20005;-77
2022/05/07 07:01:00;;;;;;;;;;;;;;;18.05;100.00;102213.91;5069606;28;19972;-73
2022/05/07 07:03:26;;;;;;;;;;;;;;;18.87;100.00;102225.75;5071364;28;19951;-76
2022/05/07 07:05:52;;;;;;;;;;;;;;;18.74;100.00;102229.88;5069048;28;20003;-75
2022/05/07 07:08:18;;;;;;;;;;;;;;;18.37;100.00;102232.50;5069340;28;20369;-75
2022/05/07 07:10:43;;;;;;;;;;;;;;;18.97;100.00;102242.03;5069552;28;19913;-73
2022/05/07 07:13:08;;;;;;;;;;;;;;;19.85;100.00;102241.25;5070212;28;19920;-74
2022/05/07 07:15:35;;;;;;;;;;;;;;;20.79;100.00;102261.69;5066957;28;20361;-74
2022/05/07 07:18:02;;;;;;;;;;;;;;;21.66;100.00;102279.06;5056591;28;19979;-73
2022/05/07 07:20:27;;;;;;;;;;;;;;;21.47;100.00;102277.84;5053393;28;19970;-76
2022/05/07 07:22:52;;;;;;;;;;;;;;;22.45;100.00;102282.63;5075475;28;19924;-75
2022/05/07 07:25:17;;;;;;;;;;;;;;;23.35;100.00;102300.34;5089037;28;19920;-76
2022/05/07 07:27:43;;;;;;;;;;;;;;;23.30;100.00;102305.69;5090584;28;20417;-74
2022/05/07 07:30:08;;;;;;;;;;;;;;;22.64;100.00;102295.34;5089145;28;19978;-75
2022/05/07 07:32:33;;;;;;;;;;;;;;;21.99;100.00;102294.63;5069160;28;20014;-77
2022/05/07 07:35:00;;;;;;;;;;;;;;;21.79;100.00;102294.41;5057784;28;19924;-75
2022/05/07 07:37:27;;;;;;;;;;;;;;;21.40;100.00;102287.59;5089915;28;20004;-77
2022/05/07 07:39:53;;;;;;;;;;;;;;;21.57;100.00;102289.66;5070906;28;19943;-75
2022/05/07 07:42:20;;;;;;;;;;;;;;;21.91;100.00;102285.63;5052564;28;20318;-75
2022/05/07 07:47:56;;;;;;;;;;;;;;;21.39;100.00;102307.22;5052968;28;19950;-75
2022/05/07 07:50:17;;;;;;;;;;;;;;;22.14;100.00;102307.34;5070503;28;19924;-75
2022/05/07 07:52:42;;;;;;;;;;;;;;;22.49;100.00;102306.81;5053477;28;19916;-77
2022/05/07 07:55:07;;;;;;;;;;;;;;;21.62;100.00;102309.38;5056007;28;19928;-77
2022/05/07 07:57:36;;;;;;;;;;;;;;;21.71;100.00;102311.28;5078691;28;19920;-76
2022/05/07 08:00:01;;;;;;;;;;;;;;;21.89;100.00;102303.44;5072691;28;19922;-78
2022/05/07 08:02:26;;;;;;;;;;;;;;;21.87;100.00;102295.38;5056691;28;20430;-75
2022/05/07 08:04:54;;;;;;;;;;;;;;;22.29;100.00;102303.00;5055749;28;19947;-77
2022/05/07 08:12:47;;;;;;;;;;;;;;;21.42;100.00;102319.78;5082474;28;19951;-75
2022/05/07 08:15:13;;;;;;;;;;;;;;;20.98;100.00;102315.56;5092834;28;19971;-74
2022/05/07 08:17:38;;;;;;;;;;;;;;;20.49;100.00;102303.97;5092244;28;19971;-75
2022/05/07 08:20:09;;;;;;;;;;;;;;;20.77;100.00;102306.28;5092186;28;19955;-73
2022/05/07 08:22:34;;;;;;;;;;;;;;;20.68;100.00;102311.50;5090957;28;19927;-73
2022/05/07 08:25:01;;;;;;;;;;;;;;;20.90;100.00;102314.53;5083152;28;19917;-73
2022/05/07 08:27:26;;;;;;;;;;;;;;;20.90;100.00;102311.84;5055131;28;19917;-74
2022/05/07 08:29:54;;;;;;;;;;;;;;;21.06;100.00;102319.25;5054912;28;19920;-73
2022/05/07 08:32:20;;;;;;;;;;;;;;;21.32;100.00;102316.06;5056600;28;19928;-77
2022/05/07 08:34:45;;;;;;;;;;;;;;;21.58;100.00;102316.47;5073387;28;19917;-78
2022/05/07 08:37:10;;;;;;;;;;;;;;;21.54;100.00;102317.31;5053737;28;20346;-78
2022/05/07 08:39:36;;;;;;;;;;;;;;;22.08;100.00;102326.03;5068747;28;19917;-77
2022/05/07 08:42:02;;;;;;;;;;;;;;;21.56;100.00;102333.41;5054081;28;20300;-77
2022/05/07 08:44:29;;;;;;;;;;;;;;;21.69;100.00;102336.28;5081890;28;19927;-75
2022/05/07 08:46:54;;;;;;;;;;;;;;;21.60;100.00;102333.47;5072181;28;19916;-75
2022/05/07 08:49:19;;;;;;;;;;;;;;;21.60;100.00;102337.94;5072220;28;19938;-77
2022/05/07 08:51:47;;;;;;;;;;;;;;;21.37;100.00;102333.09;5072365;28;20356;-77
2022/05/07 08:54:14;;;;;;;;;;;;;;;21.62;100.00;102330.81;5052233;28;19951;-77
2022/05/07 08:56:39;;;;;;;;;;;;;;;21.40;100.00;102333.16;5067846;28;19928;-78
2022/05/07 08:59:04;;;;;;;;;;;;;;;21.52;100.00;102345.88;5086967;28;19925;-74
2022/05/07 09:01:30;;;;;;;;;;;;;;;21.47;100.00;102342.16;5056290;28;19917;-75
2022/05/07 09:03:55;;;;;;;;;;;;;;;21.52;100.00;102349.44;5067692;28;19917;-75
2022/05/07 09:06:20;;;;;;;;;;;;;;;21.40;100.00;102346.56;5069587;28;19959;-75
2022/05/07 09:08:46;;;;;;;;;;;;;;;21.50;100.00;102340.50;5065202;28;19920;-76
2022/05/07 09:11:12;;;;;;;;;;;;;;;21.73;100.00;102349.72;5074198;28;19927;-75
2022/05/07 09:13:40;;;;;;;;;;;;;;;21.76;100.00;102344.41;5054164;28;20343;-79
2022/05/07 09:16:06;;;;;;;;;;;;;;;21.78;100.00;102338.19;5052979;28;19928;-77
2022/05/07 09:18:31;;;;;;;;;;;;;;;21.91;100.00;102347.28;5070447;28;20447;-76
2022/05/07 09:21:16;;;;;;;;;;;;;;;22.00;100.00;102344.72;5076666;28;20020;-77
2022/05/07 09:23:43;;;;;;;;;;;;;;;22.50;100.00;102356.06;5087056;28;19947;-77
2022/05/07 09:26:08;;;;;;;;;;;;;;;22.01;100.00;102341.13;5052287;28;19966;-76
2022/05/07 09:28:34;;;;;;;;;;;;;;;22.00;100.00;102343.81;5068837;28;19921;-76
2022/05/07 09:30:59;;;;;;;;;;;;;;;22.41;100.00;102346.09;5074428;28;19924;-76
2022/05/07 09:33:32;;;;;;;;;;;;;;;22.27;100.00;102350.41;5068902;28;20387;-76
2022/05/07 09:36:07;;;;;;;;;;;;;;;21.62;100.00;102350.47;5068430;28;19917;-76
2022/05/07 09:38:34;;;;;;;;;;;;;;;21.32;100.00;102346.44;5068886;28;20394;-74
2022/05/07 09:40:59;;;;;;;;;;;;;;;20.97;100.00;102353.91;5073171;28;19924;-77
2022/05/07 09:43:26;;;;;;;;;;;;;;;21.15;100.00;102346.16;5084910;28;20027;-75
2022/05/07 09:45:52;;;;;;;;;;;;;;;21.61;100.00;102339.72;5088056;28;19970;-74
2022/05/07 09:48:17;;;;;;;;;;;;;;;21.75;100.00;102338.16;5085311;28;20636;-76
2022/05/07 09:50:46;;;;;;;;;;;;;;;21.99;100.00;102347.38;5051925;28;19917;-77
2022/05/07 09:58:43;;;;;;;;;;;;;;;21.82;100.00;102348.06;5052210;28;20325;-75
2022/05/07 10:01:21;;;;;;;;;;;;;;;21.01;100.00;102358.44;5051974;28;19917;-75
2022/05/07 10:04:06;;;;;;;;;;;;;;;20.57;100.00;102348.72;5051431;28;20035;-76
2022/05/07 10:06:55;;;;;;;;;;;;;;;20.77;100.00;102348.19;5068189;28;19917;-75
2022/05/07 10:09:28;;;;;;;;;;;;;;;20.86;100.00;102350.16;5052242;28;19923;-74
2022/05/07 10:11:54;;;;;;;;;;;;;;;21.04;100.00;102352.25;5052714;28;19939;-74
2022/05/07 10:14:24;;;;;;;;;;;;;;;20.99;100.00;102346.81;5052999;28;20349;-75
2022/05/07 10:16:55;;;;;;;;;;;;;;;20.46;100.00;102358.31;5051398;28;20011;-74
2022/05/07 10:19:31;;;;;;;;;;;;;;;20.26;100.00;102349.94;5051279;28;19921;-75
2022/05/07 10:21:57;;;;;;;;;;;;;;;19.96;100.00;102352.84;5054614;28;19917;-76
2022/05/07 10:24:23;;;;;;;;;;;;;;;19.88;100.00;102350.91;5053211;28;19917;-75
2022/05/07 10:26:49;;;;;;;;;;;;;;;20.42;100.00;102352.00;5056208;28;19923;-75
2022/05/07 10:29:24;;;;;;;;;;;;;;;20.58;100.00;102347.84;5055701;28;19920;-75
2022/05/07 10:31:50;;;;;;;;;;;;;;;20.38;100.00;102350.13;5055876;28;19928;-73
2022/05/07 10:34:25;;;;;;;;;;;;;;;20.31;100.00;102348.22;5084097;28;19924;-74
2022/05/07 10:37:07;;;;;;;;;;;;;;;20.02;100.00;102344.97;5058809;28;19931;-74
2022/05/07 10:39:33;;;;;;;;;;;;;;;20.43;100.00;102348.47;5050828;28;19920;-75
2022/05/07 10:42:01;;;;;;;;;;;;;;;20.40;100.00;102347.47;5053812;28;19920;-75
2022/05/07 10:44:34;;;;;;;;;;;;;;;20.47;100.00;102345.84;5086081;28;19916;-78
2022/05/07 10:47:15;;;;;;;;;;;;;;;20.60;100.00;102345.19;5070144;28;19923;-77
2022/05/07 10:49:59;;;;;;;;;;;;;;;20.53;100.00;102346.84;5087494;28;19923;-77
2022/05/07 10:52:32;;;;;;;;;;;;;;;20.94;100.00;102344.06;5070641;28;20012;-77
2022/05/07 10:55:03;;;;;;;;;;;;;;;20.95;100.00;102345.84;5070414;28;20020;-75
2022/05/07 10:57:36;;;;;;;;;;;;;;;20.93;100.00;102355.63;5072342;28;20110;-76
2022/05/07 11:00:02;;;;;;;;;;;;;;;20.57;100.00;102348.72;5086859;28;19977;-76
2022/05/07 11:02:30;;;;;;;;;;;;;;;20.50;100.00;102345.91;5087619;28;20314;-76
2022/05/07 11:04:56;;;;;;;;;;;;;;;20.76;100.00;102341.97;5071418;28;19989;-76
2022/05/07 11:07:22;;;;;;;;;;;;;;;20.89;100.00;102343.06;5087199;28;19916;-76
2022/05/07 11:09:48;;;;;;;;;;;;;;;20.52;100.00;102353.06;5070274;28;19931;-74
2022/05/07 11:12:15;;;;;;;;;;;;;;;20.41;100.00;102338.59;5071987;28;20172;-77
2022/05/07 11:14:40;;;;;;;;;;;;;;;20.13;100.00;102338.06;5087360;28;19923;-77
2022/05/07 11:17:06;;;;;;;;;;;;;;;20.22;100.00;102334.69;5071557;28;19924;-77
2022/05/07 11:19:35;;;;;;;;;;;;;;;19.90;100.00;102333.16;5070934;28;19960;-76
2022/05/07 11:22:02;;;;;;;;;;;;;;;19.81;100.00;102329.38;5071763;28;19923;-78
2022/05/07 11:24:31;;;;;;;;;;;;;;;19.70;100.00;102327.34;5087254;28;19984;-77
2022/05/07 11:27:00;;;;;;;;;;;;;;;20.23;100.00;102331.13;5086893;28;19921;-78
2022/05/07 11:29:27;;;;;;;;;;;;;;;20.83;100.00;102337.59;5074923;28;20004;-77
2022/05/07 11:31:58;;;;;;;;;;;;;;;21.25;100.00;102346.31;5081097;28;20272;-79
2022/05/07 11:34:27;;;;;;;;;;;;;;;21.14;100.00;102347.03;5077766;28;19922;-79
2022/05/07 11:36:54;;;;;;;;;;;;;;;20.84;100.00;102354.59;5094421;28;19963;-79
2022/05/07 11:39:19;;;;;;;;;;;;;;;20.68;100.00;102346.28;5077619;28;19927;-80
2022/05/07 11:41:52;;;;;;;;;;;;;;;20.65;100.00;102338.19;5094810;28;19921;-77
2022/05/07 11:47:20;;;;;;;;;;;;;;;20.73;100.00;102351.72;5095384;28;20429;-79
2022/05/07 11:49:56;;;;;;;;;;;;;;;20.87;100.00;102344.81;5094084;28;20010;-78
2022/05/07 11:52:26;;;;;;;;;;;;;;;20.97;100.00;102345.88;5095042;28;19916;-77
2022/05/07 11:54:52;;;;;;;;;;;;;;;21.09;100.00;102355.88;5093951;28;19966;-77
2022/05/07 11:57:30;;;;;;;;;;;;;;;20.84;100.00;102349.22;5094031;28;19923;-75
2022/05/07 11:59:56;;;;;;;;;;;;;;;21.34;100.00;102344.66;5092956;28;19916;-76
2022/05/07 12:02:21;;;;;;;;;;;;;;;21.05;100.00;102354.94;5093049;28;19916;-76
2022/05/07 12:04:56;;;;;;;;;;;;;;;20.18;100.00;102336.41;5092888;28;19917;-76
2022/05/07 12:07:21;;;;;;;;;;;;;;;20.13;100.00;102343.41;5093333;28;19920;-74
2022/05/07 12:09:46;;;;;;;;;;;;;;;20.00;100.00;102349.38;5075901;28;19921;-77
2022/05/07 12:12:12;;;;;;;;;;;;;;;19.62;100.00;102344.97;5093198;28;19943;-75
2022/05/07 12:14:40;;;;;;;;;;;;;;;19.88;100.00;102337.53;5093066;28;19967;-76
2022/05/07 12:19:50;;;;;;;;;;;;;;;19.97;100.00;102336.84;5094514;28;20379;-72
2022/05/07 12:30:31;;;;;;;;;;;;;;;19.83;100.00;102333.00;5094322;28;19930;-76
2022/05/07 12:32:57;;;;;;;;;;;;;;;19.76;100.00;102337.25;5094017;28;20248;-77
2022/05/07 12:35:22;;;;;;;;;;;;;;;20.12;100.00;102335.34;5093365;28;19916;-77
2022/05/07 12:37:47;;;;;;;;;;;;;;;19.99;100.00;102345.78;5092801;28;19991;-78
2022/05/07 12:40:13;;;;;;;;;;;;;;;20.22;100.00;102345.38;5093330;28;19920;-76
2022/05/07 12:42:39;;;;;;;;;;;;;;;20.60;100.00;102355.88;5092512;28;19969;-76
2022/05/07 12:45:06;;;;;;;;;;;;;;;20.85;100.00;102354.63;5094001;28;19916;-78
2022/05/07 12:47:33;;;;;;;;;;;;;;;20.57;100.00;102361.19;5092939;28;20015;-77
2022/05/07 12:49:58;;;;;;;;;;;;;;;20.75;100.00;102358.00;5092997;28;19938;-74
2022/05/07 12:52:23;;;;;;;;;;;;;;;20.73;100.00;102357.06;5092694;28;20352;-74
2022/05/07 12:54:49;;;;;;;;;;;;;;;20.21;100.00;102362.28;5093612;28;19916;-74
2022/05/07 12:57:15;;;;;;;;;;;;;;;19.51;100.00;102360.78;5092444;28;19936;-76
2022/05/07 12:59:41;;;;;;;;;;;;;;;19.58;100.00;102345.78;5093432;28;19935;-74
2022/05/07 13:02:06;;;;;;;;;;;;;;;20.01;100.00;102348.50;5092743;28;20020;-75